Uni-arise — 3FSV7 — position and weather

sailwx.info

Track history (hours):
 
Tides and Currents Weather Stations Pressure Air Temp Water Temp Dewpoint Dewpoint Depression Visibility Wind Speed Wind Dir Waves Ship Positions

Uni-arise

Last reported at 2017-Jan-12 14:32 UTC. Time now 2017-Jan-18 18:03 UTC.
Position N 33°58' E 134°55'.

Length 165 m; draft 7 m.

Type: Ship (hazmat cat D). MMSI: 351608000.

Date/timePositionNaut miles runAvg speedWind from/ knotsBaromVisibWave heightAir tempDewpointWater temp
2017-Jan-12 14:32N 33°58' E 134°55'1514.9
2017-Jan-12 13:33N 34°12' E 134°57'1413.8
2017-Jan-12 12:33N 34°25' E 135°04'1615.4
2017-Jan-12 11:33N 34°37' E 135°16'3 2.7
2017-Jan-12 10:20N 34°40' E 135°14'0 0.1
2017-Jan-12 09:26N 34°40' E 135°14'0 0.0
2017-Jan-12 08:32N 34°40' E 135°14'0 0.0
2017-Jan-12 07:32N 34°40' E 135°14'0 0.0
2017-Jan-12 06:20N 34°40' E 135°14'0 0.0
2017-Jan-12 05:32N 34°40' E 135°14'1 0.6
2017-Jan-12 04:33N 34°40' E 135°15'5 5.2
2017-Jan-12 03:33N 34°38' E 135°21'3 2.8
2017-Jan-12 02:33N 34°39' E 135°24'0 0.3
2017-Jan-12 01:18N 34°39' E 135°24'0 0.0
2017-Jan-12 00:12N 34°39' E 135°24'0 0.0
2017-Jan-11 23:29N 34°39' E 135°24'0 0.0
2017-Jan-11 22:30N 34°39' E 135°24'0 0.0
2017-Jan-11 21:23N 34°39' E 135°24'0 0.0
2017-Jan-11 20:24N 34°39' E 135°24'0 0.0
2017-Jan-11 19:30N 34°39' E 135°24'0 0.0
2017-Jan-11 18:24N 34°39' E 135°24'0 0.0
2017-Jan-11 17:30N 34°39' E 135°24'0 0.0
2017-Jan-11 16:30N 34°39' E 135°24'0 0.0
2017-Jan-11 15:24N 34°39' E 135°24'0 0.0
2017-Jan-11 14:24N 34°39' E 135°24'0 0.0
2017-Jan-11 13:30N 34°39' E 135°24'0 0.0
2017-Jan-11 12:24N 34°39' E 135°24'0 0.0
2017-Jan-11 11:30N 34°39' E 135°24'0 0.0
2017-Jan-11 10:30N 34°39' E 135°24'0 0.0
2017-Jan-11 09:30N 34°39' E 135°24'0 0.0
2017-Jan-11 08:23N 34°39' E 135°24'0 0.0
2017-Jan-11 07:24N 34°39' E 135°24'2 2.9
2017-Jan-11 06:33N 34°37' E 135°22'1414.2
2017-Jan-11 05:33N 34°27' E 135°10'1414.2
2017-Jan-11 04:33N 34°16' E 134°59'1111.4
2017-Jan-11 03:33N 34°04' E 134°59'  
2017-Jan-07 04:34N 22°57' E 119°56'1515.3
2017-Jan-07 03:34N 22°43' E 120°04'1413.6
2017-Jan-07 02:33N 22°33' E 120°13'6 1.1
2017-Jan-06 21:20N 22°33' E 120°20'0 0.0
2017-Jan-06 16:15N 22°33' E 120°20'0 0.0
2017-Jan-06 15:32N 22°33' E 120°20'0 0.0
2017-Jan-06 14:32N 22°33' E 120°20'0 0.0
2017-Jan-06 13:32N 22°33' E 120°20'3 3.4
2017-Jan-06 12:33N 22°32' E 120°16'7 7.0
2017-Jan-06 11:33N 22°30' E 120°09'1 1.1
2017-Jan-06 10:33N 22°31' E 120°10'9 8.5
2017-Jan-06 09:33N 22°31' E 120°01'1714.1
2017-Jan-06 08:22N 22°29' E 119°43'  
Track history (hours):
 
Tides and Currents Weather Stations Pressure Air Temp Water Temp Dewpoint Dewpoint Depression Visibility Wind Speed Wind Dir Waves Ship Positions

Uni-arise

Last reported at 2017-Jan-12 14:32 UTC. Time now 2017-Jan-18 18:03 UTC.
Position N 33°58' E 134°55'.

Length 165 m; draft 7 m.

Type: Ship (hazmat cat D). MMSI: 351608000.

Date/timePositionNaut miles runAvg speedWind from/ knotsBaromVisibWave heightAir tempDewpointWater temp
2017-Jan-12 14:32N 33°58' E 134°55'1514.9
2017-Jan-12 13:33N 34°12' E 134°57'1413.8
2017-Jan-12 12:33N 34°25' E 135°04'1615.4
2017-Jan-12 11:33N 34°37' E 135°16'3 2.7
2017-Jan-12 10:20N 34°40' E 135°14'0 0.1
2017-Jan-12 09:26N 34°40' E 135°14'0 0.0
2017-Jan-12 08:32N 34°40' E 135°14'0 0.0
2017-Jan-12 07:32N 34°40' E 135°14'0 0.0
2017-Jan-12 06:20N 34°40' E 135°14'0 0.0
2017-Jan-12 05:32N 34°40' E 135°14'1 0.6
2017-Jan-12 04:33N 34°40' E 135°15'5 5.2
2017-Jan-12 03:33N 34°38' E 135°21'3 2.8
2017-Jan-12 02:33N 34°39' E 135°24'0 0.3
2017-Jan-12 01:18N 34°39' E 135°24'0 0.0
2017-Jan-12 00:12N 34°39' E 135°24'0 0.0
2017-Jan-11 23:29N 34°39' E 135°24'0 0.0
2017-Jan-11 22:30N 34°39' E 135°24'0 0.0
2017-Jan-11 21:23N 34°39' E 135°24'0 0.0
2017-Jan-11 20:24N 34°39' E 135°24'0 0.0
2017-Jan-11 19:30N 34°39' E 135°24'0 0.0
2017-Jan-11 18:24N 34°39' E 135°24'0 0.0
2017-Jan-11 17:30N 34°39' E 135°24'0 0.0
2017-Jan-11 16:30N 34°39' E 135°24'0 0.0
2017-Jan-11 15:24N 34°39' E 135°24'0 0.0
2017-Jan-11 14:24N 34°39' E 135°24'0 0.0
2017-Jan-11 13:30N 34°39' E 135°24'0 0.0
2017-Jan-11 12:24N 34°39' E 135°24'0 0.0
2017-Jan-11 11:30N 34°39' E 135°24'0 0.0
2017-Jan-11 10:30N 34°39' E 135°24'0 0.0
2017-Jan-11 09:30N 34°39' E 135°24'0 0.0
2017-Jan-11 08:23N 34°39' E 135°24'0 0.0
2017-Jan-11 07:24N 34°39' E 135°24'2 2.9
2017-Jan-11 06:33N 34°37' E 135°22'1414.2
2017-Jan-11 05:33N 34°27' E 135°10'1414.2
2017-Jan-11 04:33N 34°16' E 134°59'1111.4
2017-Jan-11 03:33N 34°04' E 134°59'  
2017-Jan-07 04:34N 22°57' E 119°56'1515.3
2017-Jan-07 03:34N 22°43' E 120°04'1413.6
2017-Jan-07 02:33N 22°33' E 120°13'6 1.1
2017-Jan-06 21:20N 22°33' E 120°20'0 0.0
2017-Jan-06 16:15N 22°33' E 120°20'0 0.0
2017-Jan-06 15:32N 22°33' E 120°20'0 0.0
2017-Jan-06 14:32N 22°33' E 120°20'0 0.0
2017-Jan-06 13:32N 22°33' E 120°20'3 3.4
2017-Jan-06 12:33N 22°32' E 120°16'7 7.0
2017-Jan-06 11:33N 22°30' E 120°09'1 1.1
2017-Jan-06 10:33N 22°31' E 120°10'9 8.5
2017-Jan-06 09:33N 22°31' E 120°01'1714.1
2017-Jan-06 08:22N 22°29' E 119°43'  

Dump ship's entire track history